Lunenburg, VT

7:20 AM EDT on August 01, 2015 (GMT -0400)
Sigouin Road | | Change Station
CLOSE
Current Station
Personal Weather Station
Location: Lunenburg, VT
Elevation: 1472 ft
Nearby Weather Stations

Elev 1472 ft 44.49 °N, 71.70 °W | Updated 22 seconds ago

Mostly Cloudy
Mostly Cloudy
63.1 °F
Feels Like 63.1 °F
N
1.0
Wind Variable Wind from SW
Gusts 4.0 mph

Today
High -- | Low -- °F
--% Chance of Precip.
Yesterday
High -- | Low -- °F
Precip. -- in
5:33 AM 8:12 PM
Full, 99% visible
Pressure 29.75 in
Visibility 10.0 miles
Clouds Few 5500 ft
Scattered Clouds 7000 ft
Scattered Clouds 11000 ft
Dew Point 58 °F
Humidity 83%
Rainfall 0.00 in
Snow Depth Not available.
UV 1 out of 12
Pollen 4.90 out of 12
Air Quality Not available.
Flu Activity Not available.
METAR KHIE 011052Z AUTO 00000KT 10SM FEW055 SCT070 SCT110 14/12 A2976 RMK AO2 SLP075 T01390122 TSNO

More Conditions Fewer Conditions

Pressure 29.75 in
Visibility 10.0 miles
Clouds Few 5500 ft
Scattered Clouds 7000 ft
Scattered Clouds 11000 ft
Dew Point 58 °F
Humidity 83%
Rainfall 0.00 in
Snow Depth Not available.
UV 1 out of 12
Pollen 4.90 out of 12
Air Quality Not available.
Flu Activity Not available.
METAR KHIE 011052Z AUTO 00000KT 10SM FEW055 SCT070 SCT110 14/12 A2976 RMK AO2 SLP075 T01390122 TSNO

More Conditions Fewer Conditions

10-Day Weather Forecast

×

Almanac

Astronomy

Aug. 01, 2015 Rise Set
Actual Time
Civil Twilight
Nautical Twilight
Astronomical Twilight
Moon
Length of Visible Light
Length of Day
Tomorrow will be .
, % of the Moon is Illuminated

Today's Extremes

State Highs State Lows

Community

WunderPhotos

Upload Photos

1,842,905 photos uploaded!

WunderBlogs® & News

Nearby

Air Quality

  Air Quality AQ Index Pollutant
Not available.

Snow Depth

Station Depth Elevation

Earthquake Activity

City Distance Mag. Time & Date
Minimum magnitude displayed is 2.5.

Coastal Water Temperatures

Place Temperature

Stations

Nearby Weather Stations

Station Location Temp. Windchill Dew Point Humidity Wind Precip. Elev Updated Type